createdAt,value
2018-08-16T00:00:18.427Z,0.00
2018-08-16T00:01:18.454Z,0.00
2018-08-16T00:02:18.482Z,0.00
2018-08-16T00:03:18.506Z,0.00
2018-08-16T00:04:18.532Z,0.00
2018-08-16T00:05:18.554Z,0.00
2018-08-16T00:06:18.585Z,0.00
2018-08-16T00:07:18.607Z,0.00
2018-08-16T00:08:18.630Z,0.00
2018-08-16T00:09:18.651Z,0.00
2018-08-16T00:10:18.678Z,0.00
2018-08-16T00:11:18.710Z,4.00
2018-08-16T00:12:18.732Z,0.00
2018-08-16T00:13:18.754Z,4.00
2018-08-16T00:14:18.780Z,0.00
2018-08-16T00:15:18.806Z,0.00
2018-08-16T00:16:18.839Z,0.00
2018-08-16T00:17:18.850Z,0.00
2018-08-16T00:18:18.878Z,0.00
2018-08-16T00:19:18.904Z,0.00
2018-08-16T00:20:18.930Z,0.00
2018-08-16T00:21:18.949Z,0.00
2018-08-16T00:22:18.972Z,0.00
2018-08-16T00:23:19.000Z,0.00
2018-08-16T00:24:19.024Z,0.00
2018-08-16T00:25:19.050Z,0.00
2018-08-16T00:26:19.074Z,0.00
2018-08-16T00:27:19.098Z,0.00
2018-08-16T00:28:19.130Z,0.00
2018-08-16T00:29:19.155Z,0.00
2018-08-16T00:30:19.176Z,0.00
2018-08-16T00:31:19.202Z,0.00
2018-08-16T00:32:19.224Z,0.00
2018-08-16T00:33:19.255Z,0.00
2018-08-16T00:34:19.270Z,0.00
2018-08-16T00:35:19.300Z,0.00
2018-08-16T00:36:19.318Z,0.00
2018-08-16T00:37:19.345Z,0.00
2018-08-16T00:38:19.370Z,0.00
2018-08-16T00:39:19.394Z,0.00
2018-08-16T00:40:19.419Z,0.00
2018-08-16T00:41:19.444Z,0.00
2018-08-16T00:42:19.472Z,0.00
2018-08-16T00:43:19.496Z,0.00
2018-08-16T00:44:19.523Z,0.00
2018-08-16T00:45:19.545Z,0.00
2018-08-16T00:46:19.566Z,0.00
2018-08-16T00:47:19.593Z,0.00
2018-08-16T00:48:19.619Z,0.00
2018-08-16T00:49:19.644Z,0.00
2018-08-16T00:50:19.664Z,0.00
2018-08-16T00:51:19.693Z,0.00
2018-08-16T00:52:19.712Z,0.00
2018-08-16T00:53:19.739Z,0.00
2018-08-16T00:54:19.774Z,0.00
2018-08-16T00:55:19.789Z,0.00
2018-08-16T00:56:19.816Z,0.00
2018-08-16T00:57:19.839Z,0.00
2018-08-16T00:58:19.866Z,0.00
2018-08-16T00:59:19.890Z,0.00
2018-08-16T01:00:19.912Z,0.00
2018-08-16T01:01:19.944Z,0.00
2018-08-16T01:02:19.959Z,0.00
2018-08-16T01:03:19.985Z,0.00
2018-08-16T01:04:20.010Z,0.00
2018-08-16T01:05:20.038Z,0.00
2018-08-16T01:06:20.060Z,0.00
2018-08-16T01:07:20.086Z,0.00
2018-08-16T01:08:20.110Z,4.00
2018-08-16T01:09:20.136Z,0.00
2018-08-16T01:10:20.156Z,0.00
2018-08-16T01:11:20.184Z,0.00
2018-08-16T01:12:20.204Z,0.00
2018-08-16T01:13:20.235Z,0.00
2018-08-16T01:14:20.258Z,0.00
2018-08-16T01:15:20.280Z,4.00
2018-08-16T01:16:20.311Z,0.00
2018-08-16T01:17:20.330Z,0.00
2018-08-16T01:18:20.355Z,0.00
2018-08-16T01:19:20.381Z,0.00
2018-08-16T01:20:20.525Z,4.00
2018-08-16T01:21:20.422Z,0.00
2018-08-16T01:22:20.453Z,0.00
2018-08-16T01:23:20.480Z,0.00
2018-08-16T01:24:20.504Z,0.00
2018-08-16T01:25:20.526Z,0.00
2018-08-16T01:26:20.551Z,0.00
2018-08-16T01:27:20.576Z,0.00
2018-08-16T01:28:20.603Z,0.00
2018-08-16T01:29:20.624Z,0.00
2018-08-16T01:30:20.648Z,0.00
2018-08-16T01:31:20.678Z,0.00
2018-08-16T01:32:20.908Z,0.00
2018-08-16T01:33:20.721Z,0.00
2018-08-16T01:34:20.748Z,4.00
2018-08-16T01:36:20.793Z,0.00
2018-08-16T01:37:20.817Z,0.00
2018-08-16T01:38:20.841Z,0.00
2018-08-16T01:39:20.877Z,4.00
2018-08-16T01:40:20.893Z,0.00
2018-08-16T01:41:20.918Z,0.00
2018-08-16T01:42:20.942Z,0.00
2018-08-16T01:43:20.967Z,0.00
2018-08-16T01:44:20.996Z,0.00
2018-08-16T01:45:21.015Z,0.00
2018-08-16T01:46:21.039Z,0.00
2018-08-16T01:47:21.064Z,0.00
2018-08-16T01:48:21.087Z,0.00
2018-08-16T01:49:21.110Z,0.00
2018-08-16T01:50:21.137Z,0.00
2018-08-16T01:51:21.160Z,0.00
2018-08-16T01:52:21.184Z,0.00
2018-08-16T01:53:21.214Z,0.00
2018-08-16T01:54:21.232Z,0.00
2018-08-16T01:55:21.264Z,0.00
2018-08-16T01:56:21.288Z,0.00
2018-08-16T01:57:21.309Z,0.00
2018-08-16T01:58:21.334Z,0.00
2018-08-16T02:00:49.011Z,0.00
2018-08-16T02:01:49.030Z,0.00
2018-08-16T02:02:49.052Z,0.00
2018-08-16T02:03:49.078Z,0.00
2018-08-16T02:04:49.101Z,0.00
2018-08-16T02:05:49.128Z,0.00
2018-08-16T02:06:49.155Z,0.00
2018-08-16T02:07:49.176Z,0.00
2018-08-16T02:08:49.202Z,0.00
2018-08-16T02:09:49.229Z,0.00
2018-08-16T02:10:49.250Z,0.00
2018-08-16T02:11:49.273Z,0.00
2018-08-16T02:12:49.295Z,0.00
2018-08-16T02:13:49.321Z,0.00
2018-08-16T02:14:49.353Z,0.00
2018-08-16T02:15:49.373Z,0.00
2018-08-16T02:16:49.601Z,0.00
2018-08-16T02:17:49.429Z,0.00
2018-08-16T02:18:49.442Z,0.00
2018-08-16T02:19:49.471Z,0.00
2018-08-16T02:20:49.491Z,0.00
2018-08-16T02:21:49.515Z,0.00
2018-08-16T02:22:49.540Z,0.00
2018-08-16T02:23:49.565Z,0.00
2018-08-16T02:24:49.584Z,0.00
2018-08-16T02:25:49.610Z,0.00
2018-08-16T02:26:49.635Z,0.00
2018-08-16T02:27:49.665Z,0.00
2018-08-16T02:28:49.686Z,0.00
2018-08-16T02:29:49.709Z,0.00
2018-08-16T02:30:49.734Z,0.00
2018-08-16T02:31:49.761Z,0.00
2018-08-16T02:32:49.780Z,0.00
2018-08-16T02:33:49.805Z,0.00
2018-08-16T02:34:49.830Z,0.00
2018-08-16T02:35:49.854Z,0.00
2018-08-16T02:36:49.881Z,0.00
2018-08-16T02:37:49.901Z,0.00
2018-08-16T02:38:49.925Z,0.00
2018-08-16T02:39:49.952Z,4.00
2018-08-16T02:40:49.987Z,0.00
2018-08-16T02:41:49.997Z,0.00
2018-08-16T02:42:50.023Z,0.00
2018-08-16T02:43:50.044Z,0.00
2018-08-16T02:44:50.072Z,0.00
2018-08-16T02:45:50.091Z,0.00
2018-08-16T02:46:50.120Z,0.00
2018-08-16T02:47:50.141Z,0.00
2018-08-16T02:48:50.169Z,0.00
2018-08-16T02:49:50.195Z,0.00
2018-08-16T02:50:50.224Z,0.00
2018-08-16T02:51:50.241Z,0.00
2018-08-16T02:52:50.265Z,0.00
2018-08-16T02:53:50.292Z,0.00
2018-08-16T02:54:50.315Z,0.00
2018-08-16T02:55:50.331Z,0.00
2018-08-16T02:56:50.360Z,0.00
2018-08-16T02:57:50.386Z,0.00
2018-08-16T02:58:50.409Z,0.00
2018-08-16T02:59:50.448Z,0.00
2018-08-16T03:00:50.461Z,0.00
2018-08-16T03:01:50.481Z,0.00
2018-08-16T03:02:50.507Z,0.00
2018-08-16T03:03:50.533Z,0.00
2018-08-16T03:04:50.551Z,0.00
2018-08-16T03:05:50.579Z,0.00
2018-08-16T03:06:50.603Z,0.00
2018-08-16T03:07:50.623Z,0.00
2018-08-16T03:08:50.649Z,0.00
2018-08-16T03:09:50.674Z,0.00
2018-08-16T03:10:50.699Z,0.00
2018-08-16T03:11:50.721Z,0.00
2018-08-16T03:12:50.746Z,0.00
2018-08-16T03:13:50.774Z,4.00
2018-08-16T03:14:50.794Z,0.00
2018-08-16T03:15:50.815Z,0.00
2018-08-16T03:16:50.836Z,0.00
2018-08-16T03:17:50.864Z,4.00
2018-08-16T03:18:50.888Z,0.00
2018-08-16T03:19:50.913Z,4.00
2018-08-16T03:20:50.940Z,4.00
2018-08-16T03:21:50.957Z,4.00
2018-08-16T03:22:50.982Z,4.00
2018-08-16T03:23:51.008Z,4.00
2018-08-16T03:24:51.035Z,4.00
2018-08-16T03:25:51.060Z,4.00
2018-08-16T03:26:51.084Z,4.00
2018-08-16T03:27:51.098Z,0.00
2018-08-16T03:28:51.130Z,4.00
2018-08-16T03:29:51.153Z,4.00
2018-08-16T03:30:51.179Z,4.00
2018-08-16T03:31:51.195Z,4.00
2018-08-16T03:32:51.224Z,4.00
2018-08-16T03:33:51.248Z,8.00
2018-08-16T03:34:51.270Z,8.00
2018-08-16T03:35:51.297Z,8.00
2018-08-16T03:36:51.317Z,8.00
2018-08-16T03:37:51.340Z,12.00
2018-08-16T03:38:51.370Z,12.00
2018-08-16T03:39:51.390Z,16.00
2018-08-16T03:40:51.416Z,16.00
2018-08-16T03:41:51.436Z,20.00
2018-08-16T03:42:51.462Z,24.00
2018-08-16T03:43:51.487Z,28.00
2018-08-16T03:44:51.519Z,28.00
2018-08-16T03:45:51.540Z,36.00
2018-08-16T03:46:51.555Z,40.00
2018-08-16T03:47:51.581Z,44.00
2018-08-16T03:48:51.609Z,52.00
2018-08-16T03:49:51.628Z,56.00
2018-08-16T03:50:51.660Z,64.00
2018-08-16T03:51:51.679Z,72.00
2018-08-16T03:52:51.705Z,80.00
2018-08-16T03:53:51.727Z,88.00
2018-08-16T03:54:51.751Z,100.00
2018-08-16T03:55:51.775Z,108.00
2018-08-16T03:56:51.796Z,116.00
2018-08-16T03:57:51.823Z,132.00
2018-08-16T03:58:51.847Z,140.00
2018-08-16T03:59:51.869Z,156.00
2018-08-16T04:00:51.901Z,172.00
2018-08-16T04:01:51.914Z,188.00
2018-08-16T04:02:51.943Z,204.00
2018-08-16T04:03:51.965Z,220.00
2018-08-16T04:04:51.987Z,240.00
2018-08-16T04:05:52.011Z,260.00
2018-08-16T04:06:52.035Z,276.00
2018-08-16T04:07:52.062Z,300.00
2018-08-16T04:08:52.087Z,320.00
2018-08-16T04:09:52.108Z,340.00
2018-08-16T04:10:52.138Z,364.00
2018-08-16T04:11:52.162Z,388.00
2018-08-16T04:12:52.181Z,408.00
2018-08-16T04:13:52.205Z,436.00
2018-08-16T04:14:52.228Z,464.00
2018-08-16T04:15:52.247Z,492.00
2018-08-16T04:16:52.275Z,516.00
2018-08-16T04:17:52.297Z,540.00
2018-08-16T04:18:52.323Z,568.00
2018-08-16T04:19:52.349Z,596.00
2018-08-16T04:20:52.371Z,628.00
2018-08-16T04:21:52.396Z,656.00
2018-08-16T04:22:52.416Z,692.00
2018-08-16T04:23:52.445Z,724.00
2018-08-16T04:24:52.471Z,756.00
2018-08-16T04:25:52.491Z,788.00
2018-08-16T04:26:52.516Z,816.00
2018-08-16T04:27:52.536Z,844.00
2018-08-16T04:28:52.558Z,880.00
2018-08-16T04:29:52.584Z,904.00
2018-08-16T04:30:52.602Z,936.00
2018-08-16T04:31:52.630Z,964.00
2018-08-16T04:32:52.658Z,996.00
2018-08-16T04:33:52.678Z,1032.00
2018-08-16T04:34:52.703Z,1072.00
2018-08-16T04:35:52.734Z,1104.00
2018-08-16T04:36:52.752Z,1140.00
2018-08-16T04:37:52.772Z,1176.00
2018-08-16T04:38:52.796Z,1208.00
2018-08-16T04:39:52.823Z,1244.00
2018-08-16T04:40:52.843Z,1276.00
2018-08-16T04:41:52.883Z,1312.00
2018-08-16T04:42:52.898Z,1348.00
2018-08-16T04:43:52.915Z,1384.00
2018-08-16T04:44:52.942Z,1416.00
2018-08-16T04:45:52.966Z,1452.00
2018-08-16T04:46:52.982Z,1484.00
2018-08-16T04:47:53.016Z,1520.00
2018-08-16T04:48:53.032Z,1556.00
2018-08-16T04:49:53.062Z,1592.00
2018-08-16T04:50:53.093Z,1628.00
2018-08-16T04:51:53.103Z,1668.00
2018-08-16T04:52:53.129Z,1704.00
2018-08-16T04:53:53.154Z,1740.00
2018-08-16T04:54:53.180Z,1784.00
2018-08-16T04:55:53.206Z,1816.00
2018-08-16T04:56:53.242Z,1856.00
2018-08-16T04:57:53.251Z,1884.00
2018-08-16T04:58:53.274Z,1916.00
2018-08-16T04:59:53.296Z,1948.00
2018-08-16T05:00:53.324Z,1984.00
2018-08-16T05:01:53.344Z,2016.00
2018-08-16T05:02:53.375Z,2056.00
2018-08-16T05:03:53.394Z,2092.00
2018-08-16T05:04:53.422Z,2136.00
2018-08-16T05:05:53.442Z,2180.00
2018-08-16T05:06:53.466Z,2220.00
2018-08-16T05:07:53.490Z,2260.00
2018-08-16T05:08:53.513Z,2300.00
2018-08-16T05:09:53.536Z,2344.00
2018-08-16T05:10:53.561Z,2380.00
2018-08-16T05:11:53.590Z,2424.00
2018-08-16T05:12:53.611Z,2456.00
2018-08-16T05:13:53.632Z,2492.00
2018-08-16T05:14:53.661Z,2524.00
2018-08-16T05:15:53.684Z,2556.00
2018-08-16T05:16:53.703Z,2588.00
2018-08-16T05:17:53.723Z,2620.00
2018-08-16T05:18:53.750Z,2652.00
2018-08-16T05:19:53.782Z,2680.00
2018-08-16T05:20:53.800Z,2712.00
2018-08-16T05:21:53.814Z,2744.00
2018-08-16T05:22:53.843Z,2768.00
2018-08-16T05:23:53.910Z,2796.00
2018-08-16T05:24:53.892Z,2820.00
2018-08-16T05:25:53.920Z,2852.00
2018-08-16T05:26:53.947Z,2888.00
2018-08-16T05:27:53.963Z,2928.00
2018-08-16T05:28:53.999Z,2956.00
2018-08-16T05:29:54.012Z,2988.00
2018-08-16T05:30:54.038Z,3020.00
2018-08-16T05:31:54.064Z,3056.00
2018-08-16T05:32:54.084Z,3084.00
2018-08-16T05:33:54.109Z,3116.00
2018-08-16T05:34:54.130Z,3152.00
2018-08-16T05:35:54.162Z,3192.00
2018-08-16T05:36:54.190Z,3232.00
2018-08-16T05:37:54.203Z,3268.00
2018-08-16T05:38:54.223Z,3312.00
2018-08-16T05:39:54.252Z,3344.00
2018-08-16T05:40:54.279Z,3372.00
2018-08-16T05:41:54.297Z,3404.00
2018-08-16T05:42:54.381Z,3428.00
2018-08-16T05:43:54.346Z,3456.00
2018-08-16T05:44:54.371Z,3484.00
2018-08-16T05:45:54.462Z,3512.00
2018-08-16T05:46:54.422Z,3556.00
2018-08-16T05:47:54.449Z,3576.00
2018-08-16T05:48:54.469Z,3604.00
2018-08-16T05:49:54.491Z,3632.00
2018-08-16T05:50:54.575Z,3660.00
2018-08-16T05:51:54.544Z,3680.00
2018-08-16T05:52:54.563Z,3696.00
2018-08-16T05:53:54.588Z,3708.00
2018-08-16T05:54:54.614Z,3740.00
2018-08-16T05:55:54.634Z,3760.00
2018-08-16T05:56:54.666Z,3788.00
2018-08-16T05:57:54.687Z,3808.00
2018-08-16T05:58:54.709Z,3848.00
2018-08-16T05:59:54.738Z,3868.00
2018-08-16T06:00:54.760Z,3884.00
2018-08-16T06:01:54.782Z,3916.00
2018-08-16T06:02:54.806Z,3936.00
2018-08-16T06:03:54.838Z,3960.00
2018-08-16T06:04:54.853Z,3984.00
2018-08-16T06:05:54.880Z,4008.00
2018-08-16T06:06:54.906Z,4032.00
2018-08-16T06:07:54.929Z,4064.00
2018-08-16T06:08:54.952Z,4092.00
2018-08-16T06:09:54.984Z,4108.00
2018-08-16T06:10:54.998Z,4140.00
2018-08-16T06:11:55.022Z,4164.00
2018-08-16T06:12:55.048Z,4180.00
2018-08-16T06:13:55.071Z,4208.00
2018-08-16T06:14:55.096Z,4224.00
2018-08-16T06:15:55.139Z,4236.00
2018-08-16T06:16:55.149Z,4260.00
2018-08-16T06:17:55.172Z,4276.00
2018-08-16T06:18:55.191Z,4300.00
2018-08-16T06:19:55.219Z,4320.00
2018-08-16T06:20:55.249Z,4348.00
2018-08-16T06:21:55.267Z,4364.00
2018-08-16T06:22:55.294Z,4404.00
2018-08-16T06:23:55.358Z,4420.00
2018-08-16T06:24:55.342Z,4444.00
2018-08-16T06:25:55.362Z,4464.00
2018-08-16T06:26:55.384Z,4492.00
2018-08-16T06:27:55.412Z,4516.00
2018-08-16T06:28:55.438Z,4540.00
2018-08-16T06:29:55.458Z,4568.00
2018-08-16T06:30:55.494Z,4628.00
2018-08-16T06:31:55.510Z,4624.00
2018-08-16T06:32:55.531Z,4644.00
2018-08-16T06:33:55.562Z,4668.00
2018-08-16T06:34:55.578Z,4708.00
2018-08-16T06:35:55.610Z,4728.00
2018-08-16T06:36:55.640Z,4752.00
2018-08-16T06:37:55.649Z,4772.00
2018-08-16T06:38:55.702Z,4792.00
2018-08-16T06:39:55.708Z,4800.00
2018-08-16T06:40:55.746Z,4828.00
2018-08-16T06:41:55.757Z,4864.00
2018-08-16T06:42:55.782Z,4896.00
2018-08-16T06:43:55.809Z,4956.00
2018-08-16T06:44:55.829Z,5028.00
2018-08-16T06:45:55.851Z,5104.00
2018-08-16T06:46:55.876Z,5192.00
2018-08-16T06:47:55.900Z,5296.00
2018-08-16T06:48:55.932Z,5404.00
2018-08-16T06:49:55.951Z,5584.00
2018-08-16T06:50:55.978Z,5808.00
2018-08-16T06:51:56.003Z,5916.00
2018-08-16T06:52:56.026Z,5812.00
2018-08-16T06:53:56.046Z,5620.00
2018-08-16T06:54:56.070Z,5476.00
2018-08-16T06:55:56.102Z,5376.00
2018-08-16T06:56:56.124Z,5332.00
2018-08-16T06:57:56.154Z,5324.00
2018-08-16T06:58:56.172Z,5364.00
2018-08-16T06:59:56.200Z,5432.00
2018-08-16T07:00:56.222Z,5500.00
2018-08-16T07:01:56.252Z,5616.00
2018-08-16T07:02:56.270Z,5704.00
2018-08-16T07:03:56.299Z,5768.00
2018-08-16T07:04:56.400Z,5796.00
2018-08-16T07:05:56.347Z,5772.00
2018-08-16T07:06:56.373Z,5664.00
2018-08-16T07:07:56.400Z,5608.00
2018-08-16T07:08:56.427Z,5564.00
2018-08-16T07:09:56.446Z,5576.00
2018-08-16T07:10:56.470Z,5620.00
2018-08-16T07:11:56.502Z,5652.00
2018-08-16T07:12:56.518Z,5668.00
2018-08-16T07:13:56.546Z,5772.00
2018-08-16T07:14:56.572Z,5852.00
2018-08-16T07:15:56.599Z,5888.00
2018-08-16T07:16:56.620Z,5900.00
2018-08-16T07:17:56.646Z,5864.00
2018-08-16T07:18:56.678Z,5880.00
2018-08-16T07:19:56.692Z,5984.00
2018-08-16T07:20:56.718Z,6140.00
2018-08-16T07:21:56.746Z,6272.00
2018-08-16T07:22:56.770Z,6432.00
2018-08-16T07:23:56.789Z,6576.00
2018-08-16T07:24:56.905Z,6728.00
2018-08-16T07:25:56.843Z,6872.00
2018-08-16T07:26:56.869Z,7024.00
2018-08-16T07:27:56.902Z,7216.00
2018-08-16T07:28:56.922Z,7524.00
2018-08-16T07:29:56.979Z,7916.00
2018-08-16T07:30:56.973Z,8352.00
2018-08-16T07:31:56.994Z,9036.00
2018-08-16T07:32:57.026Z,9572.00
2018-08-16T07:33:57.047Z,9908.00
2018-08-16T07:34:57.072Z,10296.00
2018-08-16T07:35:57.102Z,10580.00
2018-08-16T07:36:57.120Z,10700.00
2018-08-16T07:37:57.142Z,10748.00
2018-08-16T07:38:57.172Z,10772.00
2018-08-16T07:39:57.202Z,10688.00
2018-08-16T07:40:57.221Z,10500.00
2018-08-16T07:41:57.248Z,9996.00
2018-08-16T07:42:57.283Z,9504.00
2018-08-16T07:43:57.318Z,8892.00
2018-08-16T07:44:57.345Z,8504.00
2018-08-16T07:45:57.441Z,8268.00
2018-08-16T07:46:57.377Z,8084.00
2018-08-16T07:47:57.408Z,7876.00
2018-08-16T07:48:57.431Z,7624.00
2018-08-16T07:49:57.469Z,7252.00
2018-08-16T07:50:57.482Z,7104.00
2018-08-16T07:51:57.569Z,7048.00
2018-08-16T07:52:57.537Z,6948.00
2018-08-16T07:53:57.560Z,6800.00
2018-08-16T07:54:57.590Z,6712.00
2018-08-16T07:55:57.606Z,6640.00
2018-08-16T07:56:57.695Z,6732.00
2018-08-16T07:57:57.661Z,6776.00
2018-08-16T07:58:57.686Z,6704.00
2018-08-16T07:59:57.710Z,6652.00
2018-08-16T08:00:57.736Z,6648.00
2018-08-16T08:01:57.760Z,6704.00
2018-08-16T08:02:57.791Z,6756.00
2018-08-16T08:03:57.813Z,6744.00
2018-08-16T08:04:57.840Z,6708.00
2018-08-16T08:05:57.872Z,6708.00
2018-08-16T08:06:57.899Z,6720.00
2018-08-16T08:07:57.927Z,6760.00
2018-08-16T08:08:57.974Z,6788.00
2018-08-16T08:09:57.974Z,6748.00
2018-08-16T08:10:57.992Z,6736.00
2018-08-16T08:11:58.024Z,6852.00
2018-08-16T08:12:58.051Z,6968.00
2018-08-16T08:13:58.078Z,7008.00
2018-08-16T08:14:58.098Z,6984.00
2018-08-16T08:15:58.134Z,6884.00
2018-08-16T08:16:58.155Z,6884.00
2018-08-16T08:17:58.172Z,6940.00
2018-08-16T08:18:58.208Z,7088.00
2018-08-16T08:19:58.226Z,7056.00
2018-08-16T08:20:58.264Z,7048.00
2018-08-16T08:21:58.276Z,7132.00
2018-08-16T08:22:58.308Z,7056.00
2018-08-16T08:23:58.334Z,7140.00
2018-08-16T08:24:58.358Z,7304.00
2018-08-16T08:25:58.380Z,7636.00
2018-08-16T08:26:58.404Z,8000.00
2018-08-16T08:27:58.436Z,8460.00
2018-08-16T08:28:58.464Z,8716.00
2018-08-16T08:29:58.487Z,8616.00
2018-08-16T08:30:58.505Z,8304.00
2018-08-16T08:31:58.538Z,8124.00
2018-08-16T08:32:58.568Z,8204.00
2018-08-16T08:33:58.591Z,8316.00
2018-08-16T08:34:58.615Z,8376.00
2018-08-16T08:35:58.641Z,8500.00
2018-08-16T08:36:58.672Z,8552.00
2018-08-16T08:37:58.697Z,8408.00
2018-08-16T08:38:58.812Z,8308.00
2018-08-16T08:39:58.748Z,8148.00
2018-08-16T08:40:58.773Z,8132.00
2018-08-16T08:41:58.806Z,8148.00
2018-08-16T08:42:58.826Z,8136.00
2018-08-16T08:43:58.860Z,8128.00
2018-08-16T08:44:58.880Z,8276.00
2018-08-16T08:45:58.906Z,8508.00
2018-08-16T08:46:58.930Z,8744.00
2018-08-16T08:47:58.956Z,8888.00
2018-08-16T08:48:58.983Z,8892.00
2018-08-16T08:49:59.014Z,8792.00
2018-08-16T08:50:59.042Z,8700.00
2018-08-16T08:51:59.052Z,8768.00
2018-08-16T08:52:59.086Z,8852.00
2018-08-16T08:53:59.110Z,9008.00
2018-08-16T08:54:59.138Z,9300.00
2018-08-16T08:55:59.172Z,9636.00
2018-08-16T08:56:59.188Z,9960.00
2018-08-16T08:57:59.216Z,10080.00
2018-08-16T08:58:59.240Z,10036.00
2018-08-16T08:59:59.280Z,9864.00
2018-08-16T09:00:59.296Z,9708.00
2018-08-16T09:01:59.323Z,9912.00
2018-08-16T09:02:59.345Z,10036.00
2018-08-16T09:03:59.376Z,10484.00
2018-08-16T09:04:59.401Z,11200.00
2018-08-16T09:05:59.437Z,12124.00
2018-08-16T09:06:59.480Z,12116.00
2018-08-16T09:07:59.489Z,12240.00
2018-08-16T09:08:59.510Z,11688.00
2018-08-16T09:09:59.536Z,11384.00
2018-08-16T09:10:59.562Z,11336.00
2018-08-16T09:11:59.586Z,11340.00
2018-08-16T09:12:59.620Z,11660.00
2018-08-16T09:13:59.636Z,11976.00
2018-08-16T09:14:59.666Z,12644.00
2018-08-16T09:15:59.698Z,13224.00
2018-08-16T09:16:59.721Z,13872.00
2018-08-16T09:17:59.749Z,13088.00
2018-08-16T09:18:59.793Z,12804.00
2018-08-16T09:19:59.800Z,13232.00
2018-08-16T09:20:59.826Z,12684.00
2018-08-16T09:21:59.858Z,13408.00
2018-08-16T09:22:59.884Z,13576.00
2018-08-16T09:23:59.942Z,11820.00
2018-08-16T09:24:59.936Z,9492.00
2018-08-16T09:25:59.965Z,9644.00
2018-08-16T09:26:59.988Z,8996.00
2018-08-16T09:28:00.025Z,9044.00
2018-08-16T09:29:00.060Z,10424.00
2018-08-16T09:30:00.070Z,10052.00
2018-08-16T09:31:00.143Z,8996.00
2018-08-16T09:32:00.127Z,7960.00
2018-08-16T09:33:00.158Z,8248.00
2018-08-16T09:34:00.188Z,8976.00
2018-08-16T09:35:00.206Z,9688.00
2018-08-16T09:36:00.230Z,9892.00
2018-08-16T09:37:00.260Z,9788.00
2018-08-16T09:38:00.287Z,11128.00
2018-08-16T09:39:00.315Z,11528.00
2018-08-16T09:40:00.343Z,12032.00
2018-08-16T09:41:00.368Z,10988.00
2018-08-16T09:42:00.392Z,9452.00
2018-08-16T09:43:00.420Z,9724.00
2018-08-16T09:44:00.447Z,9532.00
2018-08-16T09:45:00.478Z,10260.00
2018-08-16T09:46:00.504Z,11336.00
2018-08-16T09:47:00.525Z,11096.00
2018-08-16T09:48:00.554Z,11436.00
2018-08-16T09:49:00.584Z,12096.00
2018-08-16T09:50:00.603Z,12592.00
2018-08-16T09:51:00.636Z,13636.00
2018-08-16T09:52:00.661Z,14572.00
2018-08-16T09:53:00.688Z,14704.00
2018-08-16T09:54:00.718Z,13952.00
2018-08-16T09:55:00.738Z,14480.00
2018-08-16T09:56:00.769Z,14192.00
2018-08-16T09:57:00.792Z,13796.00
2018-08-16T09:58:00.824Z,14288.00
2018-08-16T09:59:00.850Z,14628.00
2018-08-16T10:00:00.874Z,14572.00
2018-08-16T10:01:00.905Z,14752.00
2018-08-16T10:02:00.994Z,14800.00
2018-08-16T10:03:00.960Z,14308.00
2018-08-16T10:04:00.980Z,13460.00
2018-08-16T10:05:01.016Z,13284.00
2018-08-16T10:06:01.044Z,13304.00
2018-08-16T10:07:01.078Z,13032.00
2018-08-16T10:08:01.098Z,13432.00
2018-08-16T10:09:01.127Z,13840.00
2018-08-16T10:10:01.154Z,13488.00
2018-08-16T10:11:01.180Z,15484.00
2018-08-16T10:12:01.204Z,16404.00
2018-08-16T10:13:01.229Z,16272.00
2018-08-16T10:14:01.262Z,16924.00
2018-08-16T10:15:01.290Z,17444.00
2018-08-16T10:16:01.314Z,17076.00
2018-08-16T10:17:01.344Z,16724.00
2018-08-16T10:18:01.374Z,15960.00
2018-08-16T10:19:01.404Z,14984.00
2018-08-16T10:20:01.424Z,14024.00
2018-08-16T10:21:01.454Z,14524.00
2018-08-16T10:22:01.478Z,15216.00
2018-08-16T10:23:01.509Z,15012.00
2018-08-16T10:24:01.536Z,14976.00
2018-08-16T10:25:01.576Z,14828.00
2018-08-16T10:26:01.590Z,14044.00
2018-08-16T10:27:01.681Z,13280.00
2018-08-16T10:28:01.653Z,13512.00
2018-08-16T10:29:01.672Z,14284.00
2018-08-16T10:30:01.703Z,15076.00
2018-08-16T10:31:01.731Z,15096.00
2018-08-16T10:32:01.754Z,14356.00
2018-08-16T10:33:01.782Z,14944.00
2018-08-16T10:34:01.813Z,15616.00
2018-08-16T10:35:01.844Z,14676.00
2018-08-16T10:36:01.868Z,14492.00
2018-08-16T10:37:01.909Z,14684.00
2018-08-16T10:38:01.931Z,15748.00
2018-08-16T10:39:01.952Z,15336.00
2018-08-16T10:40:01.974Z,14492.00
2018-08-16T10:41:02.008Z,13688.00
2018-08-16T10:42:02.035Z,13928.00
2018-08-16T10:43:02.060Z,15100.00
2018-08-16T10:44:02.098Z,13292.00
2018-08-16T10:45:02.120Z,14536.00
2018-08-16T10:46:02.149Z,14420.00
2018-08-16T10:47:02.173Z,14476.00
2018-08-16T10:48:02.204Z,14916.00
2018-08-16T10:49:02.230Z,15928.00
2018-08-16T10:50:02.252Z,17176.00
2018-08-16T10:51:02.282Z,18804.00
2018-08-16T10:52:02.309Z,21120.00
2018-08-16T10:53:02.339Z,23552.00
2018-08-16T10:54:02.363Z,25472.00
2018-08-16T10:55:02.395Z,28096.00
2018-08-16T10:56:02.421Z,32320.00
2018-08-16T10:57:02.452Z,57568.00
2018-08-16T10:58:02.473Z,76928.00
2018-08-16T10:59:02.511Z,84416.00
2018-08-16T11:00:02.567Z,87040.00
2018-08-16T11:01:02.565Z,31328.00
2018-08-16T11:02:02.592Z,19648.00
2018-08-16T11:03:02.628Z,25696.00
2018-08-16T11:04:02.652Z,80384.00
2018-08-16T11:05:02.683Z,83040.00
2018-08-16T11:06:02.713Z,61600.00
2018-08-16T11:07:02.745Z,75552.00
2018-08-16T11:08:02.776Z,88992.00
2018-08-16T11:09:02.801Z,88768.00
2018-08-16T11:10:02.838Z,83712.00
2018-08-16T11:11:02.871Z,88160.00
2018-08-16T11:12:02.903Z,90720.00
2018-08-16T11:13:02.932Z,90880.00
2018-08-16T11:14:02.964Z,91744.00
2018-08-16T11:15:02.994Z,92160.00
2018-08-16T11:16:03.031Z,93280.00
2018-08-16T11:17:03.068Z,94048.00
2018-08-16T11:18:03.093Z,88512.00
2018-08-16T11:19:03.141Z,88704.00
2018-08-16T11:20:03.173Z,89376.00
2018-08-16T11:21:03.207Z,90560.00
2018-08-16T11:22:03.232Z,82976.00
2018-08-16T11:23:03.277Z,93952.00
2018-08-16T11:24:03.307Z,75584.00
2018-08-16T11:25:03.340Z,84864.00
2018-08-16T11:26:03.381Z,77696.00
2018-08-16T11:27:03.414Z,63232.00
2018-08-16T11:28:03.454Z,26784.00
2018-08-16T11:29:03.484Z,24032.00
2018-08-16T11:30:03.521Z,21984.00
2018-08-16T11:31:03.559Z,24352.00
2018-08-16T11:32:03.599Z,96320.00
2018-08-16T11:33:03.626Z,93248.00
2018-08-16T11:34:03.663Z,101696.00
2018-08-16T11:35:03.718Z,101632.00
2018-08-16T11:36:03.734Z,36128.00
2018-08-16T11:37:03.769Z,32736.00
2018-08-16T11:38:03.805Z,52256.00
2018-08-16T11:39:03.843Z,34592.00
2018-08-16T11:40:03.873Z,44480.00
2018-08-16T11:41:03.909Z,25952.00
2018-08-16T11:42:03.939Z,24640.00
2018-08-16T11:43:03.975Z,83808.00
2018-08-16T11:44:04.015Z,103936.00
2018-08-16T11:45:04.049Z,104000.00
2018-08-16T11:46:04.085Z,106336.00
2018-08-16T11:47:04.122Z,86368.00
2018-08-16T11:48:04.153Z,26560.00
2018-08-16T11:49:04.192Z,27360.00
2018-08-16T11:50:04.223Z,30336.00
2018-08-16T11:51:04.263Z,36736.00
2018-08-16T11:52:04.291Z,35328.00
2018-08-16T11:53:04.325Z,110368.00
2018-08-16T11:54:04.361Z,60320.00
2018-08-16T11:55:04.401Z,99264.00
2018-08-16T11:56:04.433Z,108960.00
2018-08-16T11:57:04.473Z,87456.00
2018-08-16T11:58:04.505Z,31680.00
2018-08-16T11:59:04.549Z,56384.00
2018-08-16T12:00:04.569Z,32160.00
2018-08-16T12:01:04.610Z,28512.00
2018-08-16T12:02:04.673Z,97792.00
2018-08-16T12:03:04.679Z,35040.00
2018-08-16T12:04:04.712Z,34720.00
2018-08-16T12:05:04.763Z,109664.00
2018-08-16T12:06:04.786Z,112384.00
2018-08-16T12:07:04.820Z,119168.00
2018-08-16T12:08:04.855Z,106560.00
2018-08-16T12:09:04.891Z,111680.00
2018-08-16T12:10:04.931Z,110080.00
2018-08-16T12:11:04.961Z,110912.00
2018-08-16T12:12:04.996Z,101312.00
2018-08-16T12:13:05.029Z,105152.00
2018-08-16T12:14:05.065Z,110784.00
2018-08-16T12:15:05.111Z,107584.00
2018-08-16T12:16:05.149Z,87808.00
2018-08-16T12:17:05.179Z,37024.00
2018-08-16T12:18:05.221Z,109472.00
2018-08-16T12:19:05.250Z,32128.00
2018-08-16T12:20:05.288Z,32896.00
2018-08-16T12:21:08.206Z,68448.00
2018-08-16T12:23:11.603Z,88864.00
2018-08-16T12:26:48.946Z,116064.00